sensor_id;sensor_type;location;lat;lon;timestamp;P1;durP1;ratioP1;P2;durP2;ratioP2
76023;SDS011;64719;52.124;6.226;2023-11-19T00:01:23;33.80;;;15.75;;
76023;SDS011;64719;52.124;6.226;2023-11-19T00:03:50;37.38;;;16.05;;
76023;SDS011;64719;52.124;6.226;2023-11-19T00:06:17;35.35;;;15.88;;
76023;SDS011;64719;52.124;6.226;2023-11-19T00:08:44;32.70;;;15.70;;
76023;SDS011;64719;52.124;6.226;2023-11-19T00:11:10;37.17;;;16.40;;
76023;SDS011;64719;52.124;6.226;2023-11-19T00:13:40;32.65;;;14.25;;
76023;SDS011;64719;52.124;6.226;2023-11-19T00:16:07;32.55;;;15.23;;
76023;SDS011;64719;52.124;6.226;2023-11-19T00:18:34;30.85;;;14.93;;
76023;SDS011;64719;52.124;6.226;2023-11-19T00:21:01;26.25;;;12.65;;
76023;SDS011;64719;52.124;6.226;2023-11-19T00:23:29;28.17;;;13.40;;
76023;SDS011;64719;52.124;6.226;2023-11-19T00:25:55;27.23;;;12.88;;
76023;SDS011;64719;52.124;6.226;2023-11-19T00:28:21;27.98;;;12.85;;
76023;SDS011;64719;52.124;6.226;2023-11-19T00:30:49;25.65;;;12.45;;
76023;SDS011;64719;52.124;6.226;2023-11-19T00:33:15;25.50;;;11.93;;
76023;SDS011;64719;52.124;6.226;2023-11-19T00:35:40;27.00;;;12.63;;
76023;SDS011;64719;52.124;6.226;2023-11-19T00:38:07;26.08;;;12.45;;
76023;SDS011;64719;52.124;6.226;2023-11-19T00:40:34;22.45;;;11.45;;
76023;SDS011;64719;52.124;6.226;2023-11-19T00:43:01;22.38;;;10.95;;
76023;SDS011;64719;52.124;6.226;2023-11-19T00:45:27;23.75;;;10.50;;
76023;SDS011;64719;52.124;6.226;2023-11-19T00:47:54;22.98;;;10.43;;
76023;SDS011;64719;52.124;6.226;2023-11-19T00:50:21;20.33;;;9.25;;
76023;SDS011;64719;52.124;6.226;2023-11-19T00:52:47;18.92;;;8.60;;
76023;SDS011;64719;52.124;6.226;2023-11-19T00:55:14;16.17;;;9.38;;
76023;SDS011;64719;52.124;6.226;2023-11-19T00:57:41;20.73;;;9.07;;
76023;SDS011;64719;52.124;6.226;2023-11-19T01:00:08;21.95;;;8.68;;
76023;SDS011;64719;52.124;6.226;2023-11-19T01:02:43;17.70;;;8.07;;
76023;SDS011;64719;52.124;6.226;2023-11-19T01:05:09;15.13;;;8.05;;
76023;SDS011;64719;52.124;6.226;2023-11-19T01:07:39;13.27;;;7.15;;
76023;SDS011;64719;52.124;6.226;2023-11-19T01:10:06;16.05;;;8.10;;
76023;SDS011;64719;52.124;6.226;2023-11-19T01:12:33;20.63;;;8.57;;
76023;SDS011;64719;52.124;6.226;2023-11-19T01:15:01;13.93;;;7.75;;
76023;SDS011;64719;52.124;6.226;2023-11-19T01:17:27;15.02;;;7.05;;
76023;SDS011;64719;52.124;6.226;2023-11-19T01:19:56;17.08;;;7.95;;
76023;SDS011;64719;52.124;6.226;2023-11-19T01:22:22;19.30;;;8.00;;
76023;SDS011;64719;52.124;6.226;2023-11-19T01:24:49;12.52;;;7.38;;
76023;SDS011;64719;52.124;6.226;2023-11-19T01:27:17;18.10;;;7.47;;
76023;SDS011;64719;52.124;6.226;2023-11-19T01:29:43;25.08;;;7.43;;
76023;SDS011;64719;52.124;6.226;2023-11-19T01:32:11;21.13;;;7.07;;
76023;SDS011;64719;52.124;6.226;2023-11-19T01:34:37;16.90;;;7.10;;
76023;SDS011;64719;52.124;6.226;2023-11-19T01:37:03;19.17;;;6.45;;
76023;SDS011;64719;52.124;6.226;2023-11-19T01:39:30;23.75;;;7.38;;
76023;SDS011;64719;52.124;6.226;2023-11-19T01:41:56;25.05;;;6.68;;
76023;SDS011;64719;52.124;6.226;2023-11-19T01:44:22;15.63;;;5.53;;
76023;SDS011;64719;52.124;6.226;2023-11-19T01:46:49;15.63;;;5.18;;
76023;SDS011;64719;52.124;6.226;2023-11-19T01:49:17;17.55;;;5.63;;
76023;SDS011;64719;52.124;6.226;2023-11-19T01:51:45;20.20;;;5.60;;
76023;SDS011;64719;52.124;6.226;2023-11-19T01:54:12;11.35;;;5.03;;
76023;SDS011;64719;52.124;6.226;2023-11-19T01:59:06;14.75;;;5.53;;
76023;SDS011;64719;52.124;6.226;2023-11-19T02:01:34;16.50;;;5.53;;
76023;SDS011;64719;52.124;6.226;2023-11-19T02:04:04;15.63;;;5.10;;
76023;SDS011;64719;52.124;6.226;2023-11-19T02:06:33;23.83;;;5.65;;
76023;SDS011;64719;52.124;6.226;2023-11-19T02:09:00;16.00;;;4.90;;
76023;SDS011;64719;52.124;6.226;2023-11-19T02:11:32;12.98;;;4.30;;
76023;SDS011;64719;52.124;6.226;2023-11-19T02:13:59;15.25;;;4.78;;
76023;SDS011;64719;52.124;6.226;2023-11-19T02:16:25;19.83;;;4.75;;
76023;SDS011;64719;52.124;6.226;2023-11-19T02:18:53;14.45;;;4.63;;
76023;SDS011;64719;52.124;6.226;2023-11-19T02:21:19;15.85;;;5.05;;
76023;SDS011;64719;52.124;6.226;2023-11-19T02:23:47;13.63;;;5.10;;
76023;SDS011;64719;52.124;6.226;2023-11-19T02:26:14;17.48;;;5.82;;
76023;SDS011;64719;52.124;6.226;2023-11-19T02:28:44;18.65;;;5.10;;
76023;SDS011;64719;52.124;6.226;2023-11-19T02:31:10;16.45;;;5.15;;
76023;SDS011;64719;52.124;6.226;2023-11-19T02:33:37;17.98;;;5.47;;
76023;SDS011;64719;52.124;6.226;2023-11-19T02:36:04;15.90;;;5.45;;
76023;SDS011;64719;52.124;6.226;2023-11-19T02:38:30;21.38;;;5.53;;
76023;SDS011;64719;52.124;6.226;2023-11-19T02:40:56;17.42;;;4.65;;
76023;SDS011;64719;52.124;6.226;2023-11-19T02:43:23;19.02;;;4.72;;
76023;SDS011;64719;52.124;6.226;2023-11-19T02:45:51;23.35;;;4.97;;
76023;SDS011;64719;52.124;6.226;2023-11-19T02:48:20;18.50;;;4.95;;
76023;SDS011;64719;52.124;6.226;2023-11-19T02:50:47;19.20;;;5.05;;
76023;SDS011;64719;52.124;6.226;2023-11-19T02:53:13;18.08;;;5.72;;
76023;SDS011;64719;52.124;6.226;2023-11-19T02:55:41;27.33;;;4.90;;
76023;SDS011;64719;52.124;6.226;2023-11-19T02:58:13;22.25;;;4.70;;
76023;SDS011;64719;52.124;6.226;2023-11-19T03:00:45;21.30;;;5.40;;
76023;SDS011;64719;52.124;6.226;2023-11-19T03:03:18;23.33;;;4.30;;
76023;SDS011;64719;52.124;6.226;2023-11-19T03:05:47;16.20;;;4.38;;
76023;SDS011;64719;52.124;6.226;2023-11-19T03:08:14;25.23;;;5.60;;
76023;SDS011;64719;52.124;6.226;2023-11-19T03:10:40;18.95;;;4.03;;
76023;SDS011;64719;52.124;6.226;2023-11-19T03:13:07;22.48;;;4.13;;
76023;SDS011;64719;52.124;6.226;2023-11-19T03:15:36;21.38;;;3.70;;
76023;SDS011;64719;52.124;6.226;2023-11-19T03:18:03;21.80;;;5.13;;
76023;SDS011;64719;52.124;6.226;2023-11-19T03:20:30;16.83;;;3.40;;
76023;SDS011;64719;52.124;6.226;2023-11-19T03:22:57;26.15;;;4.25;;
76023;SDS011;64719;52.124;6.226;2023-11-19T03:25:24;20.17;;;3.90;;
76023;SDS011;64719;52.124;6.226;2023-11-19T03:27:51;26.42;;;4.72;;
76023;SDS011;64719;52.124;6.226;2023-11-19T03:30:18;28.25;;;4.03;;
76023;SDS011;64719;52.124;6.226;2023-11-19T03:32:45;19.95;;;3.40;;
76023;SDS011;64719;52.124;6.226;2023-11-19T03:35:12;22.17;;;3.95;;
76023;SDS011;64719;52.124;6.226;2023-11-19T03:37:39;21.17;;;3.78;;
76023;SDS011;64719;52.124;6.226;2023-11-19T03:40:06;20.80;;;4.70;;
76023;SDS011;64719;52.124;6.226;2023-11-19T03:42:33;26.85;;;3.53;;
76023;SDS011;64719;52.124;6.226;2023-11-19T03:44:59;26.15;;;3.83;;
76023;SDS011;64719;52.124;6.226;2023-11-19T03:47:25;27.75;;;3.53;;
76023;SDS011;64719;52.124;6.226;2023-11-19T03:49:52;23.60;;;4.35;;
76023;SDS011;64719;52.124;6.226;2023-11-19T03:52:18;20.50;;;4.20;;
76023;SDS011;64719;52.124;6.226;2023-11-19T03:54:46;25.40;;;4.78;;
76023;SDS011;64719;52.124;6.226;2023-11-19T03:57:12;22.02;;;3.10;;
76023;SDS011;64719;52.124;6.226;2023-11-19T03:59:38;26.45;;;4.25;;
76023;SDS011;64719;52.124;6.226;2023-11-19T04:02:05;22.15;;;3.72;;
76023;SDS011;64719;52.124;6.226;2023-11-19T04:04:32;29.70;;;5.25;;
76023;SDS011;64719;52.124;6.226;2023-11-19T04:06:59;24.83;;;3.80;;
76023;SDS011;64719;52.124;6.226;2023-11-19T04:09:26;27.27;;;4.40;;
76023;SDS011;64719;52.124;6.226;2023-11-19T04:11:53;27.95;;;4.80;;
76023;SDS011;64719;52.124;6.226;2023-11-19T04:14:20;27.90;;;4.60;;
76023;SDS011;64719;52.124;6.226;2023-11-19T04:16:46;30.45;;;4.20;;
76023;SDS011;64719;52.124;6.226;2023-11-19T04:19:12;30.23;;;4.55;;
76023;SDS011;64719;52.124;6.226;2023-11-19T04:21:39;24.85;;;4.38;;
76023;SDS011;64719;52.124;6.226;2023-11-19T04:24:07;27.55;;;3.97;;
76023;SDS011;64719;52.124;6.226;2023-11-19T04:26:33;30.15;;;4.10;;
76023;SDS011;64719;52.124;6.226;2023-11-19T04:29:01;27.08;;;4.05;;
76023;SDS011;64719;52.124;6.226;2023-11-19T04:31:28;30.13;;;4.60;;
76023;SDS011;64719;52.124;6.226;2023-11-19T04:33:56;27.52;;;4.13;;
76023;SDS011;64719;52.124;6.226;2023-11-19T04:36:22;25.17;;;3.92;;
76023;SDS011;64719;52.124;6.226;2023-11-19T04:38:49;31.08;;;5.22;;
76023;SDS011;64719;52.124;6.226;2023-11-19T04:41:15;30.98;;;5.88;;
76023;SDS011;64719;52.124;6.226;2023-11-19T04:43:42;32.60;;;4.80;;
76023;SDS011;64719;52.124;6.226;2023-11-19T04:46:10;23.23;;;4.68;;
76023;SDS011;64719;52.124;6.226;2023-11-19T04:51:04;25.08;;;5.28;;
76023;SDS011;64719;52.124;6.226;2023-11-19T04:53:30;25.60;;;4.60;;
76023;SDS011;64719;52.124;6.226;2023-11-19T04:55:57;23.58;;;5.30;;
76023;SDS011;64719;52.124;6.226;2023-11-19T04:58:24;26.92;;;5.03;;
76023;SDS011;64719;52.124;6.226;2023-11-19T05:00:50;29.80;;;6.03;;
76023;SDS011;64719;52.124;6.226;2023-11-19T05:03:19;19.42;;;4.10;;
76023;SDS011;64719;52.124;6.226;2023-11-19T05:05:45;32.45;;;4.43;;
76023;SDS011;64719;52.124;6.226;2023-11-19T05:08:11;42.83;;;5.78;;
76023;SDS011;64719;52.124;6.226;2023-11-19T05:10:38;31.95;;;5.22;;
76023;SDS011;64719;52.124;6.226;2023-11-19T05:13:05;24.90;;;4.35;;
76023;SDS011;64719;52.124;6.226;2023-11-19T05:15:31;31.65;;;5.25;;
76023;SDS011;64719;52.124;6.226;2023-11-19T05:17:58;28.80;;;4.45;;
76023;SDS011;64719;52.124;6.226;2023-11-19T05:20:26;35.97;;;4.88;;
76023;SDS011;64719;52.124;6.226;2023-11-19T05:22:52;35.92;;;5.65;;
76023;SDS011;64719;52.124;6.226;2023-11-19T05:25:18;28.85;;;4.53;;
76023;SDS011;64719;52.124;6.226;2023-11-19T05:27:45;29.70;;;4.95;;
76023;SDS011;64719;52.124;6.226;2023-11-19T05:30:11;33.20;;;4.57;;
76023;SDS011;64719;52.124;6.226;2023-11-19T05:32:38;26.60;;;5.47;;
76023;SDS011;64719;52.124;6.226;2023-11-19T05:35:04;34.33;;;5.30;;
76023;SDS011;64719;52.124;6.226;2023-11-19T05:37:32;27.30;;;3.95;;
76023;SDS011;64719;52.124;6.226;2023-11-19T05:39:59;20.60;;;4.13;;
76023;SDS011;64719;52.124;6.226;2023-11-19T05:42:28;30.35;;;5.20;;
76023;SDS011;64719;52.124;6.226;2023-11-19T05:44:54;26.45;;;4.55;;
76023;SDS011;64719;52.124;6.226;2023-11-19T05:47:21;24.92;;;4.47;;
76023;SDS011;64719;52.124;6.226;2023-11-19T05:49:47;28.42;;;4.82;;
76023;SDS011;64719;52.124;6.226;2023-11-19T05:52:14;26.10;;;3.78;;
76023;SDS011;64719;52.124;6.226;2023-11-19T05:54:41;21.60;;;3.88;;
76023;SDS011;64719;52.124;6.226;2023-11-19T05:57:08;29.17;;;4.63;;
76023;SDS011;64719;52.124;6.226;2023-11-19T05:59:34;23.02;;;4.32;;
76023;SDS011;64719;52.124;6.226;2023-11-19T06:02:01;27.27;;;4.10;;
76023;SDS011;64719;52.124;6.226;2023-11-19T06:04:27;29.95;;;5.30;;
76023;SDS011;64719;52.124;6.226;2023-11-19T06:06:53;28.40;;;4.55;;
76023;SDS011;64719;52.124;6.226;2023-11-19T06:09:20;27.30;;;4.38;;
76023;SDS011;64719;52.124;6.226;2023-11-19T06:11:49;32.95;;;4.78;;
76023;SDS011;64719;52.124;6.226;2023-11-19T06:14:16;35.28;;;4.03;;
76023;SDS011;64719;52.124;6.226;2023-11-19T06:16:42;29.42;;;4.85;;
76023;SDS011;64719;52.124;6.226;2023-11-19T06:19:09;27.27;;;4.32;;
76023;SDS011;64719;52.124;6.226;2023-11-19T06:21:36;22.45;;;3.33;;
76023;SDS011;64719;52.124;6.226;2023-11-19T06:24:02;25.60;;;4.07;;
76023;SDS011;64719;52.124;6.226;2023-11-19T06:26:29;27.33;;;5.65;;
76023;SDS011;64719;52.124;6.226;2023-11-19T06:28:56;21.33;;;3.60;;
76023;SDS011;64719;52.124;6.226;2023-11-19T06:31:23;31.17;;;4.47;;
76023;SDS011;64719;52.124;6.226;2023-11-19T06:33:49;19.50;;;4.57;;
76023;SDS011;64719;52.124;6.226;2023-11-19T06:36:15;24.33;;;4.00;;
76023;SDS011;64719;52.124;6.226;2023-11-19T06:38:42;29.35;;;5.18;;
76023;SDS011;64719;52.124;6.226;2023-11-19T06:41:08;22.00;;;4.03;;
76023;SDS011;64719;52.124;6.226;2023-11-19T06:43:35;26.67;;;4.13;;
76023;SDS011;64719;52.124;6.226;2023-11-19T06:46:04;31.25;;;5.28;;
76023;SDS011;64719;52.124;6.226;2023-11-19T06:48:31;26.98;;;4.38;;
76023;SDS011;64719;52.124;6.226;2023-11-19T06:50:57;32.92;;;4.60;;
76023;SDS011;64719;52.124;6.226;2023-11-19T06:53:24;26.17;;;4.07;;
76023;SDS011;64719;52.124;6.226;2023-11-19T06:55:50;23.98;;;4.45;;
76023;SDS011;64719;52.124;6.226;2023-11-19T06:58:16;27.92;;;4.75;;
76023;SDS011;64719;52.124;6.226;2023-11-19T07:00:43;34.40;;;5.43;;
76023;SDS011;64719;52.124;6.226;2023-11-19T07:03:13;26.75;;;4.20;;
76023;SDS011;64719;52.124;6.226;2023-11-19T07:05:41;30.73;;;4.03;;
76023;SDS011;64719;52.124;6.226;2023-11-19T07:08:07;25.27;;;4.50;;
76023;SDS011;64719;52.124;6.226;2023-11-19T07:10:33;32.47;;;4.75;;
76023;SDS011;64719;52.124;6.226;2023-11-19T07:12:59;26.35;;;4.45;;
76023;SDS011;64719;52.124;6.226;2023-11-19T07:15:26;29.23;;;6.10;;
76023;SDS011;64719;52.124;6.226;2023-11-19T07:17:52;29.85;;;6.43;;
76023;SDS011;64719;52.124;6.226;2023-11-19T07:20:20;30.42;;;5.03;;
76023;SDS011;64719;52.124;6.226;2023-11-19T07:22:47;27.27;;;4.90;;
76023;SDS011;64719;52.124;6.226;2023-11-19T07:25:14;35.03;;;5.05;;
76023;SDS011;64719;52.124;6.226;2023-11-19T07:27:40;32.65;;;4.80;;
76023;SDS011;64719;52.124;6.226;2023-11-19T07:30:08;26.02;;;4.63;;
76023;SDS011;64719;52.124;6.226;2023-11-19T07:32:34;33.33;;;5.80;;
76023;SDS011;64719;52.124;6.226;2023-11-19T07:35:00;29.13;;;4.25;;
76023;SDS011;64719;52.124;6.226;2023-11-19T07:37:27;33.85;;;5.90;;
76023;SDS011;64719;52.124;6.226;2023-11-19T07:39:53;32.03;;;6.18;;
76023;SDS011;64719;52.124;6.226;2023-11-19T07:42:20;22.33;;;4.55;;
76023;SDS011;64719;52.124;6.226;2023-11-19T07:44:46;35.03;;;5.13;;
76023;SDS011;64719;52.124;6.226;2023-11-19T07:47:12;34.97;;;4.63;;
76023;SDS011;64719;52.124;6.226;2023-11-19T07:49:39;29.05;;;4.55;;
76023;SDS011;64719;52.124;6.226;2023-11-19T07:52:05;30.48;;;4.25;;
76023;SDS011;64719;52.124;6.226;2023-11-19T07:54:33;27.15;;;4.00;;
76023;SDS011;64719;52.124;6.226;2023-11-19T07:56:59;21.33;;;4.93;;
76023;SDS011;64719;52.124;6.226;2023-11-19T07:59:26;28.70;;;4.53;;
76023;SDS011;64719;52.124;6.226;2023-11-19T08:01:52;28.98;;;5.00;;
76023;SDS011;64719;52.124;6.226;2023-11-19T08:04:19;28.73;;;4.78;;
76023;SDS011;64719;52.124;6.226;2023-11-19T08:06:45;27.90;;;4.15;;
76023;SDS011;64719;52.124;6.226;2023-11-19T08:09:11;21.10;;;3.67;;
76023;SDS011;64719;52.124;6.226;2023-11-19T08:11:40;21.65;;;3.50;;
76023;SDS011;64719;52.124;6.226;2023-11-19T08:14:06;22.48;;;3.65;;
76023;SDS011;64719;52.124;6.226;2023-11-19T08:16:33;35.72;;;4.65;;
76023;SDS011;64719;52.124;6.226;2023-11-19T08:18:59;24.70;;;4.07;;
76023;SDS011;64719;52.124;6.226;2023-11-19T08:21:26;21.40;;;3.10;;
76023;SDS011;64719;52.124;6.226;2023-11-19T08:23:52;26.90;;;4.53;;
76023;SDS011;64719;52.124;6.226;2023-11-19T08:26:19;25.25;;;3.60;;
76023;SDS011;64719;52.124;6.226;2023-11-19T08:28:46;32.50;;;4.50;;
76023;SDS011;64719;52.124;6.226;2023-11-19T08:31:13;24.80;;;3.92;;
76023;SDS011;64719;52.124;6.226;2023-11-19T08:33:39;23.15;;;3.92;;
76023;SDS011;64719;52.124;6.226;2023-11-19T08:36:07;25.10;;;4.22;;
76023;SDS011;64719;52.124;6.226;2023-11-19T08:38:33;23.85;;;3.55;;
76023;SDS011;64719;52.124;6.226;2023-11-19T08:40:59;30.40;;;5.00;;
76023;SDS011;64719;52.124;6.226;2023-11-19T08:43:26;25.60;;;4.22;;
76023;SDS011;64719;52.124;6.226;2023-11-19T08:45:53;19.90;;;3.78;;
76023;SDS011;64719;52.124;6.226;2023-11-19T08:48:20;23.77;;;4.22;;
76023;SDS011;64719;52.124;6.226;2023-11-19T08:50:46;23.35;;;4.25;;
76023;SDS011;64719;52.124;6.226;2023-11-19T08:53:13;23.13;;;3.55;;
76023;SDS011;64719;52.124;6.226;2023-11-19T08:55:39;22.80;;;3.90;;
76023;SDS011;64719;52.124;6.226;2023-11-19T08:58:05;28.77;;;4.38;;
76023;SDS011;64719;52.124;6.226;2023-11-19T09:00:31;20.35;;;3.42;;
76023;SDS011;64719;52.124;6.226;2023-11-19T09:02:59;23.85;;;4.13;;
76023;SDS011;64719;52.124;6.226;2023-11-19T09:05:26;31.83;;;4.93;;
76023;SDS011;64719;52.124;6.226;2023-11-19T09:07:52;26.27;;;5.47;;
76023;SDS011;64719;52.124;6.226;2023-11-19T09:10:19;23.67;;;4.10;;
76023;SDS011;64719;52.124;6.226;2023-11-19T09:12:45;27.70;;;4.03;;
76023;SDS011;64719;52.124;6.226;2023-11-19T09:15:11;24.92;;;4.32;;
76023;SDS011;64719;52.124;6.226;2023-11-19T09:17:38;22.25;;;3.80;;
76023;SDS011;64719;52.124;6.226;2023-11-19T09:20:06;25.00;;;4.13;;
76023;SDS011;64719;52.124;6.226;2023-11-19T09:22:33;25.05;;;4.22;;
76023;SDS011;64719;52.124;6.226;2023-11-19T09:24:59;22.98;;;4.53;;
76023;SDS011;64719;52.124;6.226;2023-11-19T09:27:25;22.75;;;4.43;;
76023;SDS011;64719;52.124;6.226;2023-11-19T09:29:52;23.77;;;3.95;;
76023;SDS011;64719;52.124;6.226;2023-11-19T09:32:22;22.10;;;4.60;;
76023;SDS011;64719;52.124;6.226;2023-11-19T09:34:48;25.33;;;4.53;;
76023;SDS011;64719;52.124;6.226;2023-11-19T09:37:16;20.80;;;4.28;;
76023;SDS011;64719;52.124;6.226;2023-11-19T09:39:42;26.73;;;4.10;;
76023;SDS011;64719;52.124;6.226;2023-11-19T09:42:09;20.65;;;3.50;;
76023;SDS011;64719;52.124;6.226;2023-11-19T09:44:35;28.98;;;4.40;;
76023;SDS011;64719;52.124;6.226;2023-11-19T09:47:03;20.85;;;3.70;;
76023;SDS011;64719;52.124;6.226;2023-11-19T09:49:30;24.98;;;3.85;;
76023;SDS011;64719;52.124;6.226;2023-11-19T09:51:56;22.10;;;4.13;;
76023;SDS011;64719;52.124;6.226;2023-11-19T09:54:24;26.05;;;4.28;;
76023;SDS011;64719;52.124;6.226;2023-11-19T09:56:51;24.83;;;4.47;;
76023;SDS011;64719;52.124;6.226;2023-11-19T09:59:18;24.35;;;3.63;;
76023;SDS011;64719;52.124;6.226;2023-11-19T10:01:45;17.52;;;3.28;;
76023;SDS011;64719;52.124;6.226;2023-11-19T10:04:11;20.80;;;3.42;;
76023;SDS011;64719;52.124;6.226;2023-11-19T10:06:41;26.77;;;4.50;;
76023;SDS011;64719;52.124;6.226;2023-11-19T10:09:07;26.08;;;4.20;;
76023;SDS011;64719;52.124;6.226;2023-11-19T10:11:35;29.92;;;5.05;;
76023;SDS011;64719;52.124;6.226;2023-11-19T10:14:01;19.90;;;3.78;;
76023;SDS011;64719;52.124;6.226;2023-11-19T10:16:28;26.90;;;4.82;;
76023;SDS011;64719;52.124;6.226;2023-11-19T10:18:55;26.40;;;3.65;;
76023;SDS011;64719;52.124;6.226;2023-11-19T10:21:21;35.53;;;4.75;;
76023;SDS011;64719;52.124;6.226;2023-11-19T10:23:48;30.33;;;4.63;;
76023;SDS011;64719;52.124;6.226;2023-11-19T10:26:16;17.48;;;3.90;;
76023;SDS011;64719;52.124;6.226;2023-11-19T10:28:45;26.80;;;4.53;;
76023;SDS011;64719;52.124;6.226;2023-11-19T10:31:11;21.35;;;3.72;;
76023;SDS011;64719;52.124;6.226;2023-11-19T10:33:38;28.92;;;4.30;;
76023;SDS011;64719;52.124;6.226;2023-11-19T10:36:05;18.98;;;3.40;;
76023;SDS011;64719;52.124;6.226;2023-11-19T10:38:32;24.08;;;3.72;;
76023;SDS011;64719;52.124;6.226;2023-11-19T10:40:58;27.25;;;3.40;;
76023;SDS011;64719;52.124;6.226;2023-11-19T10:43:25;25.48;;;5.35;;
76023;SDS011;64719;52.124;6.226;2023-11-19T10:45:54;26.75;;;4.00;;
76023;SDS011;64719;52.124;6.226;2023-11-19T10:48:20;22.17;;;4.22;;
76023;SDS011;64719;52.124;6.226;2023-11-19T10:50:49;23.27;;;3.65;;
76023;SDS011;64719;52.124;6.226;2023-11-19T10:53:19;25.02;;;3.95;;
76023;SDS011;64719;52.124;6.226;2023-11-19T10:55:46;19.73;;;4.15;;
76023;SDS011;64719;52.124;6.226;2023-11-19T10:58:15;25.17;;;3.83;;
76023;SDS011;64719;52.124;6.226;2023-11-19T11:00:43;23.27;;;3.80;;
76023;SDS011;64719;52.124;6.226;2023-11-19T11:03:17;22.55;;;3.20;;
76023;SDS011;64719;52.124;6.226;2023-11-19T11:05:44;23.65;;;3.65;;
76023;SDS011;64719;52.124;6.226;2023-11-19T11:08:12;22.52;;;4.30;;
76023;SDS011;64719;52.124;6.226;2023-11-19T11:10:39;18.35;;;3.85;;
76023;SDS011;64719;52.124;6.226;2023-11-19T11:13:06;21.67;;;4.45;;
76023;SDS011;64719;52.124;6.226;2023-11-19T11:15:32;26.45;;;3.28;;
76023;SDS011;64719;52.124;6.226;2023-11-19T11:17:59;19.75;;;3.75;;
76023;SDS011;64719;52.124;6.226;2023-11-19T11:20:28;19.92;;;3.92;;
76023;SDS011;64719;52.124;6.226;2023-11-19T11:22:58;22.63;;;3.75;;
76023;SDS011;64719;52.124;6.226;2023-11-19T11:25:31;19.77;;;3.65;;
76023;SDS011;64719;52.124;6.226;2023-11-19T11:28:08;19.55;;;3.63;;
76023;SDS011;64719;52.124;6.226;2023-11-19T11:30:46;22.17;;;4.68;;
76023;SDS011;64719;52.124;6.226;2023-11-19T11:33:21;26.95;;;4.05;;
76023;SDS011;64719;52.124;6.226;2023-11-19T11:35:52;18.85;;;3.38;;
76023;SDS011;64719;52.124;6.226;2023-11-19T11:38:21;18.83;;;3.05;;
76023;SDS011;64719;52.124;6.226;2023-11-19T11:43:45;18.00;;;3.08;;
76023;SDS011;64719;52.124;6.226;2023-11-19T11:48:52;22.95;;;3.85;;
76023;SDS011;64719;52.124;6.226;2023-11-19T11:51:22;17.27;;;3.40;;
76023;SDS011;64719;52.124;6.226;2023-11-19T11:54:08;19.80;;;3.92;;
76023;SDS011;64719;52.124;6.226;2023-11-19T11:56:36;18.70;;;3.92;;
76023;SDS011;64719;52.124;6.226;2023-11-19T11:59:03;16.80;;;4.43;;
76023;SDS011;64719;52.124;6.226;2023-11-19T12:01:29;18.50;;;3.88;;
76023;SDS011;64719;52.124;6.226;2023-11-19T12:03:56;17.63;;;3.95;;
76023;SDS011;64719;52.124;6.226;2023-11-19T12:06:24;24.33;;;3.95;;
76023;SDS011;64719;52.124;6.226;2023-11-19T12:08:53;22.25;;;5.07;;
76023;SDS011;64719;52.124;6.226;2023-11-19T12:11:25;27.40;;;4.03;;
76023;SDS011;64719;52.124;6.226;2023-11-19T12:13:55;16.08;;;2.88;;
76023;SDS011;64719;52.124;6.226;2023-11-19T12:16:24;22.63;;;3.55;;
76023;SDS011;64719;52.124;6.226;2023-11-19T12:18:52;23.20;;;4.30;;
76023;SDS011;64719;52.124;6.226;2023-11-19T12:21:30;24.20;;;4.32;;
76023;SDS011;64719;52.124;6.226;2023-11-19T12:23:57;24.27;;;3.35;;
76023;SDS011;64719;52.124;6.226;2023-11-19T12:26:38;18.85;;;3.63;;
76023;SDS011;64719;52.124;6.226;2023-11-19T12:29:05;23.48;;;3.55;;
76023;SDS011;64719;52.124;6.226;2023-11-19T12:31:32;22.30;;;3.65;;
76023;SDS011;64719;52.124;6.226;2023-11-19T12:34:08;18.33;;;3.83;;
76023;SDS011;64719;52.124;6.226;2023-11-19T12:36:38;24.25;;;4.07;;
76023;SDS011;64719;52.124;6.226;2023-11-19T12:39:04;27.92;;;4.15;;
76023;SDS011;64719;52.124;6.226;2023-11-19T12:41:31;14.60;;;3.13;;
76023;SDS011;64719;52.124;6.226;2023-11-19T12:46:26;13.00;;;2.97;;
76023;SDS011;64719;52.124;6.226;2023-11-19T12:48:52;14.73;;;3.03;;
76023;SDS011;64719;52.124;6.226;2023-11-19T12:51:18;16.80;;;2.80;;
76023;SDS011;64719;52.124;6.226;2023-11-19T12:53:50;17.25;;;2.75;;
76023;SDS011;64719;52.124;6.226;2023-11-19T12:56:19;14.93;;;3.25;;
76023;SDS011;64719;52.124;6.226;2023-11-19T12:58:46;17.42;;;2.55;;
76023;SDS011;64719;52.124;6.226;2023-11-19T13:01:15;20.80;;;3.63;;
76023;SDS011;64719;52.124;6.226;2023-11-19T13:03:43;22.67;;;3.05;;
76023;SDS011;64719;52.124;6.226;2023-11-19T13:06:10;20.98;;;3.00;;
76023;SDS011;64719;52.124;6.226;2023-11-19T13:08:37;16.67;;;2.60;;
76023;SDS011;64719;52.124;6.226;2023-11-19T13:11:05;14.68;;;2.63;;
76023;SDS011;64719;52.124;6.226;2023-11-19T13:13:32;11.85;;;2.55;;
76023;SDS011;64719;52.124;6.226;2023-11-19T13:16:03;19.02;;;3.08;;
76023;SDS011;64719;52.124;6.226;2023-11-19T13:18:30;17.15;;;3.65;;
76023;SDS011;64719;52.124;6.226;2023-11-19T13:20:56;18.10;;;2.88;;
76023;SDS011;64719;52.124;6.226;2023-11-19T13:23:23;18.73;;;2.70;;
76023;SDS011;64719;52.124;6.226;2023-11-19T13:25:49;15.63;;;3.08;;
76023;SDS011;64719;52.124;6.226;2023-11-19T13:28:17;16.55;;;3.03;;
76023;SDS011;64719;52.124;6.226;2023-11-19T13:30:43;17.83;;;3.33;;
76023;SDS011;64719;52.124;6.226;2023-11-19T13:33:10;16.65;;;2.97;;
76023;SDS011;64719;52.124;6.226;2023-11-19T13:35:37;15.57;;;3.85;;
76023;SDS011;64719;52.124;6.226;2023-11-19T13:38:05;15.07;;;3.10;;
76023;SDS011;64719;52.124;6.226;2023-11-19T13:40:31;12.73;;;2.90;;
76023;SDS011;64719;52.124;6.226;2023-11-19T13:42:57;14.52;;;3.13;;
76023;SDS011;64719;52.124;6.226;2023-11-19T13:45:25;16.38;;;3.67;;
76023;SDS011;64719;52.124;6.226;2023-11-19T13:47:51;16.20;;;2.33;;
76023;SDS011;64719;52.124;6.226;2023-11-19T13:50:18;11.05;;;2.47;;
76023;SDS011;64719;52.124;6.226;2023-11-19T13:52:44;14.97;;;3.00;;
76023;SDS011;64719;52.124;6.226;2023-11-19T13:55:12;17.13;;;3.45;;
76023;SDS011;64719;52.124;6.226;2023-11-19T13:57:39;13.73;;;3.17;;
76023;SDS011;64719;52.124;6.226;2023-11-19T14:00:06;17.75;;;3.20;;
76023;SDS011;64719;52.124;6.226;2023-11-19T14:02:37;19.83;;;3.05;;
76023;SDS011;64719;52.124;6.226;2023-11-19T14:05:04;16.63;;;2.95;;
76023;SDS011;64719;52.124;6.226;2023-11-19T14:07:30;14.05;;;2.88;;
76023;SDS011;64719;52.124;6.226;2023-11-19T14:09:57;17.30;;;3.17;;
76023;SDS011;64719;52.124;6.226;2023-11-19T14:12:23;23.80;;;3.50;;
76023;SDS011;64719;52.124;6.226;2023-11-19T14:14:49;16.92;;;3.20;;
76023;SDS011;64719;52.124;6.226;2023-11-19T14:17:16;18.35;;;2.80;;
76023;SDS011;64719;52.124;6.226;2023-11-19T14:19:44;18.88;;;2.30;;
76023;SDS011;64719;52.124;6.226;2023-11-19T14:22:11;13.40;;;2.47;;
76023;SDS011;64719;52.124;6.226;2023-11-19T14:24:37;15.23;;;3.35;;
76023;SDS011;64719;52.124;6.226;2023-11-19T14:27:05;14.00;;;2.65;;
76023;SDS011;64719;52.124;6.226;2023-11-19T14:29:32;28.33;;;4.72;;
76023;SDS011;64719;52.124;6.226;2023-11-19T14:31:59;25.70;;;3.83;;
76023;SDS011;64719;52.124;6.226;2023-11-19T14:34:26;23.13;;;3.60;;
76023;SDS011;64719;52.124;6.226;2023-11-19T14:36:54;20.85;;;2.95;;
76023;SDS011;64719;52.124;6.226;2023-11-19T14:39:20;15.02;;;2.85;;
76023;SDS011;64719;52.124;6.226;2023-11-19T14:41:46;22.92;;;3.20;;
76023;SDS011;64719;52.124;6.226;2023-11-19T14:44:14;14.57;;;4.22;;
76023;SDS011;64719;52.124;6.226;2023-11-19T14:46:40;13.85;;;3.75;;